sensor_id;sensor_type;location;lat;lon;timestamp;temperature;humidity
78076;DHT22;67291;52.546;13.422;2023-01-26T07:44:16;17.9;59.3
78076;DHT22;67291;52.546;13.422;2023-01-26T07:45:22;19.0;53.4
78076;DHT22;67291;52.546;13.422;2023-01-26T07:46:27;18.9;53.2
78076;DHT22;67291;52.546;13.422;2023-01-26T07:47:35;18.8;55.1
78076;DHT22;67291;52.546;13.422;2023-01-26T07:48:41;18.7;51.6
78076;DHT22;67291;52.546;13.422;2023-01-26T07:49:47;18.7;53.8
78076;DHT22;67291;52.546;13.422;2023-01-26T07:50:56;18.8;54.2
78076;DHT22;67291;52.546;13.422;2023-01-26T07:52:06;18.9;54.8
78076;DHT22;67291;52.546;13.422;2023-01-26T07:53:10;19.6;66.2
78076;DHT22;67291;52.546;13.422;2023-01-26T07:54:17;20.6;51.5
78076;DHT22;67291;52.546;13.422;2023-01-26T07:55:24;20.4;51.2
78076;DHT22;67291;52.546;13.422;2023-01-26T07:56:29;20.3;54.5
78076;DHT22;67291;52.546;13.422;2023-01-26T08:12:36;22.4;49.9
78076;DHT22;67291;52.546;13.422;2023-01-26T08:13:40;23.2;48.4
78076;DHT22;67291;52.546;13.422;2023-01-26T08:14:44;23.1;47.2
78076;DHT22;67291;52.546;13.422;2023-01-26T08:15:50;23.4;45.4
78076;DHT22;67291;52.546;13.422;2023-01-26T08:16:57;23.0;46.0
78076;DHT22;67291;52.546;13.422;2023-01-26T08:18:05;22.7;45.9
78076;DHT22;67291;52.546;13.422;2023-01-26T08:19:11;22.3;46.9
78076;DHT22;67291;52.546;13.422;2023-01-26T08:20:19;22.1;46.4
78076;DHT22;67291;52.546;13.422;2023-01-26T08:21:23;22.0;47.2
78076;DHT22;67291;52.546;13.422;2023-01-26T08:22:27;22.1;48.4
78076;DHT22;67291;52.546;13.422;2023-01-26T08:23:32;22.6;46.7
78076;DHT22;67291;52.546;13.422;2023-01-26T08:24:38;22.6;48.2
78076;DHT22;67291;52.546;13.422;2023-01-26T08:25:43;23.2;57.2
78076;DHT22;67291;52.546;13.422;2023-01-26T09:03:35;25.0;51.3
78076;DHT22;67291;52.546;13.422;2023-01-26T09:04:41;25.2;43.3
78076;DHT22;67291;52.546;13.422;2023-01-26T09:05:47;24.8;43.1
78076;DHT22;67291;52.546;13.422;2023-01-26T09:06:52;24.6;44.8
78076;DHT22;67291;52.546;13.422;2023-01-26T09:07:57;24.6;44.9
78076;DHT22;67291;52.546;13.422;2023-01-26T09:09:05;24.7;43.9
78076;DHT22;67291;52.546;13.422;2023-01-26T09:10:12;24.6;44.1
78076;DHT22;67291;52.546;13.422;2023-01-26T09:11:17;24.5;43.8
78076;DHT22;67291;52.546;13.422;2023-01-26T09:12:23;24.5;46.0
78076;DHT22;67291;52.546;13.422;2023-01-26T09:13:33;24.5;45.5
78076;DHT22;67291;52.546;13.422;2023-01-26T09:14:38;24.4;45.2
78076;DHT22;67291;52.546;13.422;2023-01-26T09:15:45;24.3;45.0
78076;DHT22;67291;52.546;13.422;2023-01-26T09:16:53;24.3;45.3
78076;DHT22;67291;52.546;13.422;2023-01-26T09:17:57;24.2;44.8
78076;DHT22;67291;52.546;13.422;2023-01-26T09:19:04;24.1;45.0
78076;DHT22;67291;52.546;13.422;2023-01-26T09:20:13;23.9;44.4
78076;DHT22;67291;52.546;13.422;2023-01-26T09:21:22;23.8;44.2
78076;DHT22;67291;52.546;13.422;2023-01-26T09:22:33;23.7;44.0
78076;DHT22;67291;52.546;13.422;2023-01-26T09:23:43;23.7;44.1
78076;DHT22;67291;52.546;13.422;2023-01-26T09:24:51;23.7;44.3
78076;DHT22;67291;52.546;13.422;2023-01-26T09:25:57;23.7;44.5
78076;DHT22;67291;52.546;13.422;2023-01-26T09:27:08;23.7;44.6
78076;DHT22;67291;52.546;13.422;2023-01-26T09:28:17;23.7;44.5
78076;DHT22;67291;52.546;13.422;2023-01-26T09:29:21;23.7;44.9
78076;DHT22;67291;52.546;13.422;2023-01-26T09:30:27;23.8;47.7
78076;DHT22;67291;52.546;13.422;2023-01-26T09:31:33;23.7;48.3
78076;DHT22;67291;52.546;13.422;2023-01-26T09:36:00;24.0;45.9
78076;DHT22;67291;52.546;13.422;2023-01-26T09:37:07;24.3;45.0
78076;DHT22;67291;52.546;13.422;2023-01-26T09:38:15;24.4;43.8
78076;DHT22;67291;52.546;13.422;2023-01-26T09:39:21;24.4;44.4
78076;DHT22;67291;52.546;13.422;2023-01-26T09:40:40;24.5;44.2
78076;DHT22;67291;52.546;13.422;2023-01-26T09:42:00;24.6;44.2
78076;DHT22;67291;52.546;13.422;2023-01-26T09:43:20;24.6;44.2
78076;DHT22;67291;52.546;13.422;2023-01-26T09:44:35;24.7;43.9
78076;DHT22;67291;52.546;13.422;2023-01-26T09:45:57;24.8;45.2
78076;DHT22;67291;52.546;13.422;2023-01-26T09:47:16;24.9;43.6
78076;DHT22;67291;52.546;13.422;2023-01-26T09:48:34;25.0;44.6
78076;DHT22;67291;52.546;13.422;2023-01-26T09:53:29;24.8;42.6
78076;DHT22;67291;52.546;13.422;2023-01-26T09:54:38;24.8;42.3
78076;DHT22;67291;52.546;13.422;2023-01-26T09:55:46;24.6;44.0
78076;DHT22;67291;52.546;13.422;2023-01-26T09:56:53;24.5;42.5
78076;DHT22;67291;52.546;13.422;2023-01-26T09:58:02;24.4;44.5
78076;DHT22;67291;52.546;13.422;2023-01-26T09:59:22;24.3;46.2
78076;DHT22;67291;52.546;13.422;2023-01-26T10:00:35;24.6;52.5
78076;DHT22;67291;52.546;13.422;2023-01-26T10:05:22;27.2;42.1
78076;DHT22;67291;52.546;13.422;2023-01-26T10:06:33;26.8;40.3
78076;DHT22;67291;52.546;13.422;2023-01-26T10:07:42;26.2;41.5
78076;DHT22;67291;52.546;13.422;2023-01-26T10:08:51;26.0;43.8
78076;DHT22;67291;52.546;13.422;2023-01-26T10:09:56;25.9;43.8
78076;DHT22;67291;52.546;13.422;2023-01-26T10:11:06;25.8;45.2
78076;DHT22;67291;52.546;13.422;2023-01-26T10:12:20;25.8;45.7
78076;DHT22;67291;52.546;13.422;2023-01-26T10:13:27;25.8;46.2
78076;DHT22;67291;52.546;13.422;2023-01-26T10:14:37;25.7;44.1
78076;DHT22;67291;52.546;13.422;2023-01-26T10:15:48;25.6;44.1
78076;DHT22;67291;52.546;13.422;2023-01-26T10:16:55;25.4;44.9
78076;DHT22;67291;52.546;13.422;2023-01-26T10:18:08;25.4;43.4
78076;DHT22;67291;52.546;13.422;2023-01-26T10:19:32;25.2;43.4
78076;DHT22;67291;52.546;13.422;2023-01-26T10:20:46;25.1;42.6
78076;DHT22;67291;52.546;13.422;2023-01-26T10:21:53;25.1;44.2
78076;DHT22;67291;52.546;13.422;2023-01-26T10:23:04;25.0;45.5
78076;DHT22;67291;52.546;13.422;2023-01-26T10:24:29;25.4;44.8
78076;DHT22;67291;52.546;13.422;2023-01-26T10:25:38;25.4;44.3
78076;DHT22;67291;52.546;13.422;2023-01-26T10:27:00;25.2;44.7
78076;DHT22;67291;52.546;13.422;2023-01-26T10:28:15;25.1;42.9
78076;DHT22;67291;52.546;13.422;2023-01-26T10:29:27;24.9;42.3
78076;DHT22;67291;52.546;13.422;2023-01-26T10:30:33;24.8;43.1
78076;DHT22;67291;52.546;13.422;2023-01-26T10:31:41;24.8;42.8
78076;DHT22;67291;52.546;13.422;2023-01-26T10:32:51;24.7;42.8
78076;DHT22;67291;52.546;13.422;2023-01-26T10:34:01;24.7;42.8
78076;DHT22;67291;52.546;13.422;2023-01-26T10:35:27;24.8;42.4
78076;DHT22;67291;52.546;13.422;2023-01-26T10:36:34;24.8;43.5
78076;DHT22;67291;52.546;13.422;2023-01-26T10:37:43;24.7;42.9
78076;DHT22;67291;52.546;13.422;2023-01-26T10:38:52;24.7;42.3
78076;DHT22;67291;52.546;13.422;2023-01-26T10:40:05;24.7;42.5
78076;DHT22;67291;52.546;13.422;2023-01-26T10:41:25;24.8;43.0
78076;DHT22;67291;52.546;13.422;2023-01-26T10:42:43;24.7;43.6
78076;DHT22;67291;52.546;13.422;2023-01-26T10:44:02;24.8;43.1
78076;DHT22;67291;52.546;13.422;2023-01-26T10:45:31;24.8;44.7
78076;DHT22;67291;52.546;13.422;2023-01-26T10:46:40;24.9;43.7
78076;DHT22;67291;52.546;13.422;2023-01-26T10:48:08;24.9;43.4
78076;DHT22;67291;52.546;13.422;2023-01-26T10:49:20;24.9;42.4
78076;DHT22;67291;52.546;13.422;2023-01-26T10:50:27;24.8;42.7
78076;DHT22;67291;52.546;13.422;2023-01-26T10:51:35;24.9;43.5
78076;DHT22;67291;52.546;13.422;2023-01-26T10:52:58;24.9;43.4
78076;DHT22;67291;52.546;13.422;2023-01-26T10:55:15;25.0;43.8
78076;DHT22;67291;52.546;13.422;2023-01-26T10:56:27;25.1;42.4
78076;DHT22;67291;52.546;13.422;2023-01-26T10:57:39;25.2;42.9
78076;DHT22;67291;52.546;13.422;2023-01-26T10:58:55;25.1;41.9
78076;DHT22;67291;52.546;13.422;2023-01-26T11:00:16;25.0;42.1
78076;DHT22;67291;52.546;13.422;2023-01-26T11:01:25;24.9;41.9
78076;DHT22;67291;52.546;13.422;2023-01-26T11:02:33;24.7;42.0
78076;DHT22;67291;52.546;13.422;2023-01-26T11:03:40;24.4;43.5
78076;DHT22;67291;52.546;13.422;2023-01-26T11:05:03;24.3;43.8
78076;DHT22;67291;52.546;13.422;2023-01-26T11:06:16;23.8;38.7
78076;DHT22;67291;52.546;13.422;2023-01-26T11:07:31;22.9;46.8
78076;DHT22;67291;52.546;13.422;2023-01-26T11:08:38;22.9;39.3
78076;DHT22;67291;52.546;13.422;2023-01-26T11:09:45;22.9;37.7
78076;DHT22;67291;52.546;13.422;2023-01-26T11:10:54;22.6;36.7
78076;DHT22;67291;52.546;13.422;2023-01-26T11:12:03;22.0;37.2
78076;DHT22;67291;52.546;13.422;2023-01-26T11:13:16;21.9;38.7
78076;DHT22;67291;52.546;13.422;2023-01-26T11:14:21;21.9;38.3
78076;DHT22;67291;52.546;13.422;2023-01-26T11:15:28;21.7;36.4
78076;DHT22;67291;52.546;13.422;2023-01-26T11:16:40;21.1;36.4
78076;DHT22;67291;52.546;13.422;2023-01-26T11:17:53;20.5;36.6
78076;DHT22;67291;52.546;13.422;2023-01-26T11:19:04;20.5;38.2
78076;DHT22;67291;52.546;13.422;2023-01-26T11:20:45;19.7;36.1
78076;DHT22;67291;52.546;13.422;2023-01-26T11:21:54;19.0;36.9
78076;DHT22;67291;52.546;13.422;2023-01-26T11:23:02;18.1;38.3
78076;DHT22;67291;52.546;13.422;2023-01-26T11:24:11;17.7;39.9
78076;DHT22;67291;52.546;13.422;2023-01-26T11:25:23;17.3;40.9
78076;DHT22;67291;52.546;13.422;2023-01-26T11:28:57;16.7;40.4
78076;DHT22;67291;52.546;13.422;2023-01-26T11:30:38;16.2;41.1
78076;DHT22;67291;52.546;13.422;2023-01-26T11:31:55;15.8;41.5
78076;DHT22;67291;52.546;13.422;2023-01-26T11:33:07;15.5;43.0
78076;DHT22;67291;52.546;13.422;2023-01-26T11:34:29;15.4;43.8
78076;DHT22;67291;52.546;13.422;2023-01-26T11:35:49;15.2;44.8
78076;DHT22;67291;52.546;13.422;2023-01-26T11:37:02;15.3;44.3
78076;DHT22;67291;52.546;13.422;2023-01-26T11:38:24;15.3;44.6
78076;DHT22;67291;52.546;13.422;2023-01-26T11:39:34;15.1;43.4
78076;DHT22;67291;52.546;13.422;2023-01-26T11:40:46;14.9;46.9
78076;DHT22;67291;52.546;13.422;2023-01-26T11:42:01;14.9;43.6
78076;DHT22;67291;52.546;13.422;2023-01-26T11:43:21;14.7;43.4
78076;DHT22;67291;52.546;13.422;2023-01-26T11:46:09;14.1;44.7
78076;DHT22;67291;52.546;13.422;2023-01-26T11:47:27;13.9;45.1
78076;DHT22;67291;52.546;13.422;2023-01-26T11:48:42;13.7;45.5
78076;DHT22;67291;52.546;13.422;2023-01-26T11:51:38;13.5;45.9
78076;DHT22;67291;52.546;13.422;2023-01-26T11:52:53;13.3;46.2
78076;DHT22;67291;52.546;13.422;2023-01-26T11:54:17;13.2;48.1
78076;DHT22;67291;52.546;13.422;2023-01-26T11:55:57;13.3;49.8
78076;DHT22;67291;52.546;13.422;2023-01-26T11:57:15;13.6;50.0
78076;DHT22;67291;52.546;13.422;2023-01-26T11:58:29;13.8;49.2
78076;DHT22;67291;52.546;13.422;2023-01-26T11:59:37;14.0;49.5
78076;DHT22;67291;52.546;13.422;2023-01-26T12:00:46;14.3;48.0
78076;DHT22;67291;52.546;13.422;2023-01-26T12:01:58;14.2;45.9
78076;DHT22;67291;52.546;13.422;2023-01-26T12:03:11;13.9;46.4
78076;DHT22;67291;52.546;13.422;2023-01-26T12:04:19;13.8;46.6
78076;DHT22;67291;52.546;13.422;2023-01-26T12:05:27;13.7;47.6
78076;DHT22;67291;52.546;13.422;2023-01-26T12:06:39;13.4;48.1
78076;DHT22;67291;52.546;13.422;2023-01-26T12:07:50;13.2;48.4
78076;DHT22;67291;52.546;13.422;2023-01-26T12:08:59;13.0;49.0
78076;DHT22;67291;52.546;13.422;2023-01-26T12:10:11;12.8;50.5
78076;DHT22;67291;52.546;13.422;2023-01-26T12:11:21;12.5;49.3
78076;DHT22;67291;52.546;13.422;2023-01-26T12:12:31;12.3;49.7
78076;DHT22;67291;52.546;13.422;2023-01-26T12:14:39;12.4;49.0
78076;DHT22;67291;52.546;13.422;2023-01-26T12:15:48;12.4;49.3
78076;DHT22;67291;52.546;13.422;2023-01-26T12:17:08;12.4;49.6
78076;DHT22;67291;52.546;13.422;2023-01-26T12:18:21;12.4;49.5
78076;DHT22;67291;52.546;13.422;2023-01-26T12:19:37;12.3;51.2
78076;DHT22;67291;52.546;13.422;2023-01-26T12:20:44;12.3;49.9
78076;DHT22;67291;52.546;13.422;2023-01-26T12:21:50;12.3;49.9
78076;DHT22;67291;52.546;13.422;2023-01-26T12:23:02;12.3;50.4
78076;DHT22;67291;52.546;13.422;2023-01-26T12:24:11;12.1;50.1
78076;DHT22;67291;52.546;13.422;2023-01-26T12:25:26;11.8;50.9
78076;DHT22;67291;52.546;13.422;2023-01-26T12:26:35;11.7;49.8
78076;DHT22;67291;52.546;13.422;2023-01-26T12:27:45;11.7;50.1
78076;DHT22;67291;52.546;13.422;2023-01-26T12:28:58;11.8;50.2
78076;DHT22;67291;52.546;13.422;2023-01-26T12:30:14;11.8;49.9
78076;DHT22;67291;52.546;13.422;2023-01-26T12:31:25;11.6;49.6
78076;DHT22;67291;52.546;13.422;2023-01-26T12:32:33;11.5;49.9
78076;DHT22;67291;52.546;13.422;2023-01-26T12:33:38;11.3;50.5
78076;DHT22;67291;52.546;13.422;2023-01-26T12:34:42;11.4;50.8
78076;DHT22;67291;52.546;13.422;2023-01-26T12:35:59;11.3;50.6
78076;DHT22;67291;52.546;13.422;2023-01-26T12:37:24;11.3;51.4
78076;DHT22;67291;52.546;13.422;2023-01-26T12:38:41;11.4;51.9
78076;DHT22;67291;52.546;13.422;2023-01-26T12:39:53;11.4;51.1
78076;DHT22;67291;52.546;13.422;2023-01-26T12:41:08;11.5;51.6
78076;DHT22;67291;52.546;13.422;2023-01-26T12:42:21;11.4;52.3
78076;DHT22;67291;52.546;13.422;2023-01-26T12:43:39;11.4;50.9
78076;DHT22;67291;52.546;13.422;2023-01-26T12:44:52;11.2;50.9
78076;DHT22;67291;52.546;13.422;2023-01-26T12:45:57;11.1;52.3
78076;DHT22;67291;52.546;13.422;2023-01-26T12:47:08;11.0;54.3
78076;DHT22;67291;52.546;13.422;2023-01-26T12:48:19;11.0;51.8
78076;DHT22;67291;52.546;13.422;2023-01-26T12:49:28;10.9;52.8
78076;DHT22;67291;52.546;13.422;2023-01-26T12:50:39;11.1;53.1
78076;DHT22;67291;52.546;13.422;2023-01-26T12:51:48;11.3;53.6
78076;DHT22;67291;52.546;13.422;2023-01-26T12:52:56;11.3;51.9
78076;DHT22;67291;52.546;13.422;2023-01-26T12:54:11;11.2;52.0
78076;DHT22;67291;52.546;13.422;2023-01-26T12:55:19;11.1;52.4
78076;DHT22;67291;52.546;13.422;2023-01-26T12:56:27;11.1;54.4
78076;DHT22;67291;52.546;13.422;2023-01-26T12:57:41;11.2;53.8
78076;DHT22;67291;52.546;13.422;2023-01-26T12:58:49;11.2;52.9
78076;DHT22;67291;52.546;13.422;2023-01-26T13:00:04;11.1;52.9
78076;DHT22;67291;52.546;13.422;2023-01-26T13:01:11;11.0;55.3
78076;DHT22;67291;52.546;13.422;2023-01-26T13:02:25;10.9;53.8
78076;DHT22;67291;52.546;13.422;2023-01-26T13:03:33;10.8;54.1
78076;DHT22;67291;52.546;13.422;2023-01-26T13:04:40;10.8;54.6
78076;DHT22;67291;52.546;13.422;2023-01-26T13:05:58;10.9;54.7
78076;DHT22;67291;52.546;13.422;2023-01-26T13:10:10;11.1;55.2
78076;DHT22;67291;52.546;13.422;2023-01-26T13:11:56;11.2;55.1
78076;DHT22;67291;52.546;13.422;2023-01-26T13:13:24;11.3;54.8
78076;DHT22;67291;52.546;13.422;2023-01-26T13:14:33;11.3;53.0
78076;DHT22;67291;52.546;13.422;2023-01-26T13:15:37;11.0;53.8
78076;DHT22;67291;52.546;13.422;2023-01-26T13:16:42;11.3;55.7
78076;DHT22;67291;52.546;13.422;2023-01-26T13:17:57;11.8;53.1
78076;DHT22;67291;52.546;13.422;2023-01-26T13:19:03;12.2;51.2
78076;DHT22;67291;52.546;13.422;2023-01-26T13:21:32;13.0;49.3
78076;DHT22;67291;52.546;13.422;2023-01-26T13:22:44;13.4;48.9
78076;DHT22;67291;52.546;13.422;2023-01-26T13:23:48;13.8;47.9
78076;DHT22;67291;52.546;13.422;2023-01-26T13:24:57;14.1;47.6
78076;DHT22;67291;52.546;13.422;2023-01-26T13:26:14;14.3;46.7
78076;DHT22;67291;52.546;13.422;2023-01-26T13:28:34;14.7;46.4
78076;DHT22;67291;52.546;13.422;2023-01-26T13:29:52;14.9;45.7
78076;DHT22;67291;52.546;13.422;2023-01-26T13:31:05;15.1;45.4
78076;DHT22;67291;52.546;13.422;2023-01-26T13:34:38;15.4;44.9
78076;DHT22;67291;52.546;13.422;2023-01-26T13:35:45;15.7;44.4
78076;DHT22;67291;52.546;13.422;2023-01-26T13:36:51;15.8;44.1
78076;DHT22;67291;52.546;13.422;2023-01-26T13:38:04;16.0;43.4
78076;DHT22;67291;52.546;13.422;2023-01-26T13:39:17;16.1;43.4
78076;DHT22;67291;52.546;13.422;2023-01-26T13:40:29;16.2;43.1
78076;DHT22;67291;52.546;13.422;2023-01-26T13:41:34;16.3;42.8
78076;DHT22;67291;52.546;13.422;2023-01-26T13:42:53;16.4;42.7
78076;DHT22;67291;52.546;13.422;2023-01-26T13:44:06;16.5;42.5
78076;DHT22;67291;52.546;13.422;2023-01-26T13:45:21;16.6;42.4
78076;DHT22;67291;52.546;13.422;2023-01-26T13:46:33;16.6;42.0
78076;DHT22;67291;52.546;13.422;2023-01-26T13:47:43;16.7;41.9
78076;DHT22;67291;52.546;13.422;2023-01-26T13:48:49;16.9;42.8
78076;DHT22;67291;52.546;13.422;2023-01-26T13:49:53;17.1;42.3
78076;DHT22;67291;52.546;13.422;2023-01-26T13:51:01;17.3;41.8
78076;DHT22;67291;52.546;13.422;2023-01-26T13:52:16;17.4;41.6
78076;DHT22;67291;52.546;13.422;2023-01-26T13:53:33;17.6;40.9
78076;DHT22;67291;52.546;13.422;2023-01-26T13:54:41;17.7;40.9
78076;DHT22;67291;52.546;13.422;2023-01-26T13:55:50;17.8;40.6
78076;DHT22;67291;52.546;13.422;2023-01-26T13:57:04;17.8;40.1
78076;DHT22;67291;52.546;13.422;2023-01-26T13:58:13;17.9;40.1
78076;DHT22;67291;52.546;13.422;2023-01-26T13:59:19;18.0;40.3
78076;DHT22;67291;52.546;13.422;2023-01-26T14:00:23;18.0;40.6
78076;DHT22;67291;52.546;13.422;2023-01-26T14:01:28;18.1;40.0
78076;DHT22;67291;52.546;13.422;2023-01-26T14:02:34;18.2;39.5
78076;DHT22;67291;52.546;13.422;2023-01-26T14:03:38;18.3;39.4
78076;DHT22;67291;52.546;13.422;2023-01-26T14:04:51;18.3;38.8
78076;DHT22;67291;52.546;13.422;2023-01-26T14:05:58;18.3;39.1
78076;DHT22;67291;52.546;13.422;2023-01-26T14:07:06;18.4;39.3
78076;DHT22;67291;52.546;13.422;2023-01-26T14:08:16;18.4;39.6
78076;DHT22;67291;52.546;13.422;2023-01-26T14:09:20;18.5;39.7
78076;DHT22;67291;52.546;13.422;2023-01-26T14:10:25;18.5;39.3
78076;DHT22;67291;52.546;13.422;2023-01-26T14:11:31;18.6;39.1
78076;DHT22;67291;52.546;13.422;2023-01-26T14:12:40;18.6;38.4
78076;DHT22;67291;52.546;13.422;2023-01-26T14:13:49;18.7;38.4
78076;DHT22;67291;52.546;13.422;2023-01-26T14:14:56;18.8;40.1
78076;DHT22;67291;52.546;13.422;2023-01-26T14:16:03;18.8;38.2
78076;DHT22;67291;52.546;13.422;2023-01-26T14:17:21;18.8;38.3
78076;DHT22;67291;52.546;13.422;2023-01-26T14:18:27;18.9;38.5
78076;DHT22;67291;52.546;13.422;2023-01-26T14:19:32;18.9;39.2
78076;DHT22;67291;52.546;13.422;2023-01-26T14:20:42;19.0;38.3
78076;DHT22;67291;52.546;13.422;2023-01-26T14:21:50;19.0;38.0
78076;DHT22;67291;52.546;13.422;2023-01-26T14:24:11;19.0;38.0
78076;DHT22;67291;52.546;13.422;2023-01-26T14:25:21;19.0;38.5
78076;DHT22;67291;52.546;13.422;2023-01-26T14:26:30;19.1;37.7
78076;DHT22;67291;52.546;13.422;2023-01-26T14:27:38;19.1;37.4
78076;DHT22;67291;52.546;13.422;2023-01-26T14:28:43;19.1;38.2
78076;DHT22;67291;52.546;13.422;2023-01-26T14:29:48;19.2;38.0
78076;DHT22;67291;52.546;13.422;2023-01-26T14:30:56;19.2;38.0
78076;DHT22;67291;52.546;13.422;2023-01-26T14:32:02;19.3;37.3
78076;DHT22;67291;52.546;13.422;2023-01-26T14:33:10;19.3;37.1
78076;DHT22;67291;52.546;13.422;2023-01-26T14:34:20;19.4;37.4
78076;DHT22;67291;52.546;13.422;2023-01-26T14:35:25;19.5;37.3
78076;DHT22;67291;52.546;13.422;2023-01-26T14:36:31;19.6;37.1
78076;DHT22;67291;52.546;13.422;2023-01-26T14:37:36;19.6;37.0
78076;DHT22;67291;52.546;13.422;2023-01-26T14:38:43;19.7;36.8
78076;DHT22;67291;52.546;13.422;2023-01-26T14:39:48;19.7;37.0
78076;DHT22;67291;52.546;13.422;2023-01-26T14:40:54;19.7;37.7
78076;DHT22;67291;52.546;13.422;2023-01-26T14:41:58;19.7;37.3
78076;DHT22;67291;52.546;13.422;2023-01-26T14:43:04;19.8;36.8
78076;DHT22;67291;52.546;13.422;2023-01-26T14:44:10;19.8;36.4
78076;DHT22;67291;52.546;13.422;2023-01-26T14:45:15;19.8;36.3
78076;DHT22;67291;52.546;13.422;2023-01-26T14:46:23;19.8;36.4
78076;DHT22;67291;52.546;13.422;2023-01-26T14:47:30;19.8;36.4
78076;DHT22;67291;52.546;13.422;2023-01-26T14:48:41;19.8;36.3
78076;DHT22;67291;52.546;13.422;2023-01-26T14:49:52;19.9;39.9
78076;DHT22;67291;52.546;13.422;2023-01-26T14:50:59;19.8;38.1
78076;DHT22;67291;52.546;13.422;2023-01-26T14:52:03;19.8;38.5
78076;DHT22;67291;52.546;13.422;2023-01-26T14:53:18;19.8;37.9
78076;DHT22;67291;52.546;13.422;2023-01-26T14:54:27;19.8;38.1
78076;DHT22;67291;52.546;13.422;2023-01-26T14:55:34;19.9;41.6
78076;DHT22;67291;52.546;13.422;2023-01-26T14:56:40;19.9;40.9
78076;DHT22;67291;52.546;13.422;2023-01-26T14:57:48;20.0;39.0
78076;DHT22;67291;52.546;13.422;2023-01-26T14:58:54;19.9;37.9
78076;DHT22;67291;52.546;13.422;2023-01-26T15:00:02;19.8;36.6
78076;DHT22;67291;52.546;13.422;2023-01-26T15:01:06;19.7;38.3
78076;DHT22;67291;52.546;13.422;2023-01-26T15:02:17;19.7;38.5
78076;DHT22;67291;52.546;13.422;2023-01-26T15:03:27;19.8;38.2
78076;DHT22;67291;52.546;13.422;2023-01-26T15:04:36;19.8;37.9
78076;DHT22;67291;52.546;13.422;2023-01-26T15:05:41;19.9;38.3
78076;DHT22;67291;52.546;13.422;2023-01-26T15:06:46;19.9;37.0
78076;DHT22;67291;52.546;13.422;2023-01-26T15:07:53;19.9;37.0
78076;DHT22;67291;52.546;13.422;2023-01-26T15:09:01;20.0;36.9
78076;DHT22;67291;52.546;13.422;2023-01-26T15:10:29;20.0;36.4
78076;DHT22;67291;52.546;13.422;2023-01-26T15:11:37;20.0;36.2
78076;DHT22;67291;52.546;13.422;2023-01-26T15:12:42;20.0;36.1
78076;DHT22;67291;52.546;13.422;2023-01-26T15:13:50;19.9;36.1
78076;DHT22;67291;52.546;13.422;2023-01-26T15:14:58;19.4;36.2
78076;DHT22;67291;52.546;13.422;2023-01-26T15:16:09;18.7;35.8
78076;DHT22;67291;52.546;13.422;2023-01-26T15:17:27;18.2;36.1
78076;DHT22;67291;52.546;13.422;2023-01-26T15:18:33;17.6;36.9
78076;DHT22;67291;52.546;13.422;2023-01-26T15:19:41;17.1;37.8
78076;DHT22;67291;52.546;13.422;2023-01-26T15:20:55;16.6;39.4
78076;DHT22;67291;52.546;13.422;2023-01-26T15:22:00;16.3;39.4
78076;DHT22;67291;52.546;13.422;2023-01-26T15:23:27;15.8;40.8
78076;DHT22;67291;52.546;13.422;2023-01-26T15:24:32;15.5;41.8
78076;DHT22;67291;52.546;13.422;2023-01-26T15:25:36;15.2;42.6
78076;DHT22;67291;52.546;13.422;2023-01-26T15:26:40;15.1;45.1
78076;DHT22;67291;52.546;13.422;2023-01-26T15:27:50;14.9;43.5
78076;DHT22;67291;52.546;13.422;2023-01-26T15:28:56;14.6;43.5
78076;DHT22;67291;52.546;13.422;2023-01-26T15:30:01;14.4;43.4
78076;DHT22;67291;52.546;13.422;2023-01-26T15:31:05;14.1;43.7
78076;DHT22;67291;52.546;13.422;2023-01-26T15:32:28;14.0;45.7
78076;DHT22;67291;52.546;13.422;2023-01-26T15:33:49;14.5;46.5
78076;DHT22;67291;52.546;13.422;2023-01-26T15:35:06;15.2;43.9
78076;DHT22;67291;52.546;13.422;2023-01-26T15:36:25;15.8;42.6
78076;DHT22;67291;52.546;13.422;2023-01-26T15:37:31;16.2;41.5
78076;DHT22;67291;52.546;13.422;2023-01-26T15:38:36;16.6;41.9
78076;DHT22;67291;52.546;13.422;2023-01-26T15:39:40;16.8;40.8
78076;DHT22;67291;52.546;13.422;2023-01-26T15:40:44;17.0;40.5
78076;DHT22;67291;52.546;13.422;2023-01-26T15:42:06;17.2;40.2
78076;DHT22;67291;52.546;13.422;2023-01-26T15:43:14;17.4;39.8
78076;DHT22;67291;52.546;13.422;2023-01-26T15:44:20;17.5;38.9
78076;DHT22;67291;52.546;13.422;2023-01-26T15:45:26;17.2;38.5
78076;DHT22;67291;52.546;13.422;2023-01-26T15:46:30;16.8;39.2
78076;DHT22;67291;52.546;13.422;2023-01-26T15:47:34;16.5;40.7
78076;DHT22;67291;52.546;13.422;2023-01-26T15:48:38;16.4;41.1
78076;DHT22;67291;52.546;13.422;2023-01-26T15:49:42;16.3;40.7
78076;DHT22;67291;52.546;13.422;2023-01-26T15:50:47;16.3;40.5
78076;DHT22;67291;52.546;13.422;2023-01-26T15:51:51;16.1;40.7
78076;DHT22;67291;52.546;13.422;2023-01-26T15:52:56;15.9;40.9
78076;DHT22;67291;52.546;13.422;2023-01-26T15:54:01;15.8;40.7
78076;DHT22;67291;52.546;13.422;2023-01-26T15:55:18;15.9;41.9
78076;DHT22;67291;52.546;13.422;2023-01-26T15:56:23;15.9;42.2
78076;DHT22;67291;52.546;13.422;2023-01-26T15:57:27;15.9;41.1
78076;DHT22;67291;52.546;13.422;2023-01-26T15:58:32;15.9;41.4
78076;DHT22;67291;52.546;13.422;2023-01-26T15:59:37;15.8;41.0
78076;DHT22;67291;52.546;13.422;2023-01-26T16:00:41;15.8;40.8
78076;DHT22;67291;52.546;13.422;2023-01-26T16:01:45;15.8;41.2
78076;DHT22;67291;52.546;13.422;2023-01-26T16:02:49;15.8;40.6
78076;DHT22;67291;52.546;13.422;2023-01-26T16:03:54;15.5;41.0
78076;DHT22;67291;52.546;13.422;2023-01-26T16:04:58;15.2;41.8
78076;DHT22;67291;52.546;13.422;2023-01-26T16:06:02;15.0;43.4
78076;DHT22;67291;52.546;13.422;2023-01-26T16:07:12;15.1;42.5
78076;DHT22;67291;52.546;13.422;2023-01-26T16:08:17;15.0;42.5
78076;DHT22;67291;52.546;13.422;2023-01-26T16:09:21;14.9;42.4
78076;DHT22;67291;52.546;13.422;2023-01-26T16:10:25;14.7;42.8
78076;DHT22;67291;52.546;13.422;2023-01-26T16:11:32;14.4;42.8
78076;DHT22;67291;52.546;13.422;2023-01-26T16:12:38;14.3;43.5
78076;DHT22;67291;52.546;13.422;2023-01-26T16:13:42;14.2;43.3
78076;DHT22;67291;52.546;13.422;2023-01-26T16:15:36;14.4;44.5
78076;DHT22;67291;52.546;13.422;2023-01-26T16:16:41;14.6;44.2
78076;DHT22;67291;52.546;13.422;2023-01-26T16:17:45;14.8;42.8
78076;DHT22;67291;52.546;13.422;2023-01-26T16:18:50;14.6;42.6
78076;DHT22;67291;52.546;13.422;2023-01-26T16:19:54;14.5;42.5
78076;DHT22;67291;52.546;13.422;2023-01-26T16:20:59;14.4;43.1
78076;DHT22;67291;52.546;13.422;2023-01-26T16:22:03;14.2;43.8
78076;DHT22;67291;52.546;13.422;2023-01-26T16:23:16;14.1;43.6
78076;DHT22;67291;52.546;13.422;2023-01-26T16:24:20;14.0;43.6
78076;DHT22;67291;52.546;13.422;2023-01-26T16:25:27;13.8;44.0
78076;DHT22;67291;52.546;13.422;2023-01-26T16:26:32;13.7;44.3
78076;DHT22;67291;52.546;13.422;2023-01-26T16:27:36;13.7;44.6
